| time (UTC) | temp C | wind direction | speed KPH | gust KPH | rain 1hr cm | rain 24hr cm | rain mn cm | humidity % | barometer mb |
| 20260902092317 | 17 | 270 | 8.0 | 24.1 | 0.00 | 0.00 | 0.00 | 45 | 1016.0 |
| 20260902091317 | 17 | 225 | 8.0 | 12.9 | 0.00 | 0.00 | 0.00 | 46 | 1016.1 |
| 20260902090317 | 17 | 225 | 6.4 | 14.5 | 0.00 | 0.00 | 0.00 | 46 | 1016.1 |
| 20260902085317 | 17 | 270 | 6.4 | 16.1 | 0.00 | 0.00 | 0.00 | 45 | 1016.2 |
| 20260902084317 | 17 | 248 | 8.0 | 12.9 | 0.00 | 0.00 | 0.00 | 45 | 1016.2 |
| 20260902083317 | 18 | 248 | 6.4 | 11.3 | 0.00 | 0.00 | 0.00 | 44 | 1016.2 |
| 20260902082317 | 18 | 248 | 6.4 | 14.5 | 0.00 | 0.00 | 0.00 | 44 | 1016.2 |
| 20260902081317 | 17 | 270 | 6.4 | 11.3 | 0.00 | 0.00 | 0.00 | 44 | 1016.3 |
| 20260902080317 | 17 | 248 | 1.6 | 4.8 | 0.00 | 0.00 | 0.00 | 43 | 1016.0 |
| 20260902075317 | 17 | 248 | 1.6 | 3.2 | 0.00 | 0.00 | 0.00 | 41 | 1015.9 |
| 20260902074317 | 17 | 270 | 1.6 | 4.8 | 0.00 | 0.00 | 0.00 | 39 | 1015.9 |
| 20260902073337 | 17 | 0.0 | 1.6 | 0.00 | 0.00 | 0.00 | 38 | 1016.0 | |
| 20260902072317 | 18 | 225 | 1.6 | 3.2 | 0.00 | 0.00 | 0.00 | 38 | 1015.9 |
| 20260902071317 | 18 | 270 | 1.6 | 3.2 | 0.00 | 0.00 | 0.00 | 37 | 1015.8 |
| 20260902070337 | 18 | 248 | 1.6 | 3.2 | 0.00 | 0.00 | 0.00 | 36 | 1015.9 |
| 20260902065317 | 18 | 0.0 | 0.0 | 0.00 | 0.00 | 0.00 | 30 | 1015.8 | |
| 20260902064317 | 18 | 248 | 1.6 | 4.8 | 0.00 | 0.00 | 0.00 | 29 | 1015.9 |
| 20260902063337 | 18 | 248 | 6.4 | 11.3 | 0.00 | 0.00 | 0.00 | 29 | 1015.7 |
| 20260902062317 | 18 | 225 | 1.6 | 3.2 | 0.00 | 0.00 | 0.00 | 29 | 1015.6 |
| 20260902061317 | 18 | 225 | 3.2 | 4.8 | 0.00 | 0.00 | 0.00 | 27 | 1015.5 |
| 20260902060317 | 19 | 225 | 6.4 | 11.3 | 0.00 | 0.00 | 0.00 | 26 | 1015.6 |
| 20260902055317 | 19 | 225 | 4.8 | 8.0 | 0.00 | 0.00 | 0.00 | 29 | 1015.5 |
| 20260902054317 | 19 | 225 | 4.8 | 6.4 | 0.00 | 0.00 | 0.00 | 30 | 1015.5 |
| 20260902053317 | 20 | 225 | 4.8 | 8.0 | 0.00 | 0.00 | 0.00 | 32 | 1015.7 |
| 20260902052317 | 20 | 225 | 6.4 | 11.3 | 0.00 | 0.00 | 0.00 | 31 | 1015.7 |
| 20260902051317 | 20 | 225 | 11.3 | 17.7 | 0.00 | 0.00 | 0.00 | 33 | 1015.6 |
| 20260902050317 | 20 | 248 | 11.3 | 14.5 | 0.00 | 0.00 | 0.00 | 34 | 1015.5 |
| 20260902045317 | 20 | 270 | 6.4 | 11.3 | 0.00 | 0.00 | 0.00 | 35 | 1015.3 |
| 20260902044337 | 20 | 270 | 8.0 | 14.5 | 0.00 | 0.00 | 0.00 | 34 | 1015.1 |
| 20260902043317 | 20 | 270 | 8.0 | 16.1 | 0.00 | 0.00 | 0.00 | 34 | 1015.0 |
| 20260902042317 | 20 | 270 | 3.2 | 8.0 | 0.00 | 0.00 | 0.00 | 35 | 1014.9 |
| 20260902041337 | 20 | 270 | 6.4 | 14.5 | 0.00 | 0.00 | 0.00 | 34 | 1014.8 |
| 20260902040337 | 21 | 248 | 11.3 | 17.7 | 0.00 | 0.00 | 0.00 | 33 | 1014.5 |
| 20260902035317 | 21 | 270 | 12.9 | 19.3 | 0.00 | 0.00 | 0.00 | 33 | 1014.1 |
| 20260902034317 | 21 | 248 | 9.7 | 17.7 | 0.00 | 0.00 | 0.00 | 33 | 1013.9 |
| 20260902033317 | 21 | 225 | 8.0 | 16.1 | 0.00 | 0.00 | 0.00 | 34 | 1013.8 |
| 20260902032357 | 21 | 225 | 11.3 | 16.1 | 0.00 | 0.00 | 0.00 | 32 | 1013.6 |
| 20260902031317 | 21 | 225 | 11.3 | 17.7 | 0.00 | 0.00 | 0.00 | 31 | 1013.5 |
| 20260902030316 | 21 | 225 | 16.1 | 19.3 | 0.00 | 0.00 | 0.00 | 26 | 1013.4 |
| 20260902025317 | 22 | 225 | 11.3 | 16.1 | 0.00 | 0.00 | 0.00 | 27 | 1012.7 |
| 20260902024317 | 22 | 248 | 11.3 | 17.7 | 0.00 | 0.00 | 0.00 | 25 | 1012.6 |
| 20260902023317 | 22 | 225 | 14.5 | 22.5 | 0.00 | 0.00 | 0.00 | 25 | 1012.5 |
| 20260902022316 | 23 | 225 | 11.3 | 17.7 | 0.00 | 0.00 | 0.00 | 25 | 1012.6 |
| 20260902021316 | 23 | 248 | 12.9 | 20.9 | 0.00 | 0.00 | 0.00 | 25 | 1012.7 |
| 20260902020316 | 23 | 225 | 14.5 | 19.3 | 0.00 | 0.00 | 0.00 | 24 | 1012.7 |
| 20260902015316 | 24 | 225 | 12.9 | 20.9 | 0.00 | 0.00 | 0.00 | 24 | 1012.7 |
| 20260902014337 | 25 | 225 | 14.5 | 20.9 | 0.00 | 0.00 | 0.00 | 23 | 1012.8 |
| 20260902013316 | 25 | 225 | 22.5 | 29.0 | 0.00 | 0.00 | 0.00 | 24 | 1012.7 |
| 20260902012316 | 25 | 203 | 27.4 | 35.4 | 0.00 | 0.00 | 0.00 | 24 | 1012.6 |
| 20260902011317 | 26 | 203 | 24.1 | 38.6 | 0.00 | 0.00 | 0.00 | 21 | 1012.7 |
| 20260902010317 | 26 | 203 | 27.4 | 35.4 | 0.00 | 0.00 | 0.00 | 23 | 1012.7 |
| 20260902005317 | 26 | 225 | 20.9 | 27.4 | 0.00 | 0.00 | 0.00 | 25 | 1012.7 |
| 20260902004316 | 27 | 225 | 17.7 | 20.9 | 0.00 | 0.00 | 0.00 | 23 | 1012.7 |
| 20260902003316 | 27 | 225 | 20.9 | 27.4 | 0.00 | 0.00 | 0.00 | 23 | 1012.8 |
| 20260902002337 | 27 | 203 | 19.3 | 27.4 | 0.00 | 0.00 | 0.00 | 21 | 1013.0 |
| 20260902001317 | 27 | 225 | 20.9 | 33.8 | 0.00 | 0.00 | 0.00 | 20 | 1013.0 |
| 20260902000316 | 27 | 203 | 25.7 | 38.6 | 0.00 | 0.00 | 0.00 | 20 | 1013.1 |
| 20260901235316 | 28 | 203 | 22.5 | 30.6 | 0.00 | 0.00 | 0.00 | 20 | 1013.2 |
| 20260901234316 | 28 | 225 | 17.7 | 24.1 | 0.00 | 0.00 | 0.00 | 19 | 1013.3 |
| 20260901233316 | 28 | 203 | 20.9 | 33.8 | 0.00 | 0.00 | 0.00 | 19 | 1013.4 |
| 20260901232316 | 28 | 225 | 19.3 | 30.6 | 0.00 | 0.00 | 0.00 | 19 | 1013.4 |
| 20260901231316 | 28 | 225 | 29.0 | 35.4 | 0.00 | 0.00 | 0.00 | 19 | 1013.5 |
| 20260901230317 | 28 | 225 | 24.1 | 32.2 | 0.00 | 0.00 | 0.00 | 19 | 1013.5 |
| 20260901225316 | 28 | 225 | 17.7 | 27.4 | 0.00 | 0.00 | 0.00 | 20 | 1013.6 |
| 20260901224316 | 28 | 203 | 20.9 | 27.4 | 0.00 | 0.00 | 0.00 | 20 | 1013.4 |
| 20260901223316 | 28 | 203 | 25.7 | 38.6 | 0.00 | 0.00 | 0.00 | 22 | 1013.4 |
| 20260901222317 | 28 | 203 | 27.4 | 38.6 | 0.00 | 0.00 | 0.00 | 21 | 1013.7 |
| 20260901221316 | 28 | 203 | 25.7 | 33.8 | 0.00 | 0.00 | 0.00 | 20 | 1013.7 |
| 20260901220336 | 28 | 248 | 22.5 | 32.2 | 0.00 | 0.00 | 0.00 | 20 | 1013.7 |
| 20260901215316 | 27 | 203 | 37.0 | 45.1 | 0.00 | 0.00 | 0.00 | 20 | 1013.5 |
| 20260901214316 | 28 | 225 | 29.0 | 41.8 | 0.00 | 0.00 | 0.00 | 19 | 1013.7 |
| 20260901213317 | 28 | 225 | 22.5 | 33.8 | 0.00 | 0.00 | 0.00 | 18 | 1014.0 |
| 20260901212316 | 28 | 248 | 12.9 | 20.9 | 0.00 | 0.00 | 0.00 | 18 | 1014.3 |
| 20260901211316 | 28 | 225 | 19.3 | 27.4 | 0.00 | 0.00 | 0.00 | 16 | 1014.4 |
| 20260901210316 | 28 | 225 | 24.1 | 37.0 | 0.00 | 0.00 | 0.00 | 17 | 1014.4 |
| 20260901205316 | 28 | 225 | 22.5 | 29.0 | 0.00 | 0.00 | 0.00 | 17 | 1014.5 |
| 20260901204336 | 27 | 203 | 16.1 | 24.1 | 0.00 | 0.00 | 0.00 | 17 | 1014.6 |
| 20260901203316 | 27 | 203 | 16.1 | 20.9 | 0.00 | 0.00 | 0.00 | 15 | 1014.7 |
| 20260901202316 | 27 | 203 | 12.9 | 19.3 | 0.00 | 0.00 | 0.00 | 16 | 1014.9 |
| 20260901201316 | 28 | 225 | 19.3 | 27.4 | 0.00 | 0.00 | 0.00 | 14 | 1015.2 |
| 20260901200316 | 28 | 225 | 14.5 | 24.1 | 0.00 | 0.00 | 0.00 | 13 | 1015.1 |
| 20260901195316 | 28 | 225 | 12.9 | 20.9 | 0.00 | 0.00 | 0.00 | 14 | 1015.3 |
| 20260901194316 | 27 | 225 | 14.5 | 22.5 | 0.00 | 0.00 | 0.00 | 15 | 1015.3 |
| 20260901193356 | 27 | 225 | 16.1 | 25.7 | 0.00 | 0.00 | 0.00 | 16 | 1015.3 |
| 20260901192316 | 27 | 203 | 17.7 | 24.1 | 0.00 | 0.00 | 0.00 | 16 | 1015.6 |
| 20260901191316 | 26 | 203 | 14.5 | 20.9 | 0.00 | 0.00 | 0.00 | 16 | 1015.5 |
| 20260901190336 | 27 | 225 | 12.9 | 20.9 | 0.00 | 0.00 | 0.00 | 16 | 1015.7 |
| 20260901185316 | 27 | 248 | 12.9 | 20.9 | 0.00 | 0.00 | 0.00 | 15 | 1016.0 |
| 20260901184316 | 26 | 203 | 17.7 | 24.1 | 0.00 | 0.00 | 0.00 | 15 | 1015.9 |
| 20260901183336 | 26 | 225 | 14.5 | 24.1 | 0.00 | 0.00 | 0.00 | 14 | 1016.0 |
| 20260901182316 | 26 | 225 | 12.9 | 22.5 | 0.00 | 0.00 | 0.00 | 15 | 1016.1 |
| 20260901181336 | 26 | 225 | 14.5 | 19.3 | 0.00 | 0.00 | 0.00 | 15 | 1015.9 |
| 20260901180316 | 26 | 203 | 16.1 | 24.1 | 0.00 | 0.00 | 0.00 | 15 | 1015.8 |
| 20260901175316 | 26 | 203 | 11.3 | 14.5 | 0.00 | 0.00 | 0.00 | 15 | 1015.7 |
| 20260901174316 | 26 | 225 | 17.7 | 24.1 | 0.00 | 0.00 | 0.00 | 15 | 1015.8 |
| 20260901173336 | 26 | 203 | 9.7 | 16.1 | 0.00 | 0.00 | 0.00 | 15 | 1015.6 |
| 20260901172316 | 25 | 248 | 14.5 | 22.5 | 0.00 | 0.00 | 0.00 | 15 | 1015.7 |
| 20260901171316 | 25 | 248 | 12.9 | 17.7 | 0.00 | 0.00 | 0.00 | 15 | 1015.7 |
| 20260901170315 | 25 | 225 | 9.7 | 16.1 | 0.00 | 0.00 | 0.00 | 15 | 1015.8 |
| 20260901165316 | 25 | 248 | 8.0 | 12.9 | 0.00 | 0.00 | 0.00 | 16 | 1015.7 |
| 20260901164315 | 25 | 225 | 14.5 | 19.3 | 0.00 | 0.00 | 0.00 | 16 | 1015.5 |
| 20260901163315 | 24 | 225 | 17.7 | 24.1 | 0.00 | 0.00 | 0.00 | 15 | 1015.3 |
| 20260901162336 | 24 | 225 | 17.7 | 30.6 | 0.00 | 0.00 | 0.00 | 15 | 1015.3 |
| 20260901161356 | 24 | 203 | 17.7 | 20.9 | 0.00 | 0.00 | 0.00 | 15 | 1015.3 |
| 20260901160315 | 23 | 225 | 14.5 | 22.5 | 0.00 | 0.00 | 0.00 | 14 | 1015.4 |
| 20260901155315 | 23 | 225 | 9.7 | 16.1 | 0.00 | 0.00 | 0.00 | 13 | 1015.2 |
| 20260901154335 | 23 | 225 | 8.0 | 11.3 | 0.00 | 0.00 | 0.00 | 13 | 1015.2 |
| 20260901153316 | 22 | 248 | 8.0 | 12.9 | 0.00 | 0.00 | 0.00 | 13 | 1015.2 |
| 20260901152335 | 22 | 248 | 6.4 | 9.7 | 0.00 | 0.00 | 0.00 | 12 | 1015.2 |
| 20260901151316 | 22 | 248 | 4.8 | 12.9 | 0.00 | 0.00 | 0.00 | 12 | 1015.2 |
| 20260901150316 | 21 | 248 | 8.0 | 12.9 | 0.00 | 0.00 | 0.00 | 11 | 1015.1 |
| 20260901145316 | 20 | 248 | 6.4 | 9.7 | 0.00 | 0.00 | 0.00 | 12 | 1015.1 |
| 20260901144316 | 17 | 0.0 | 1.6 | 0.00 | 0.00 | 0.00 | 17 | 1014.8 | |
| 20260901143315 | 17 | 315 | 6.4 | 9.7 | 0.00 | 0.00 | 0.00 | 18 | 1014.5 |
| 20260901142317 | 17 | 315 | 1.6 | 4.8 | 0.00 | 0.00 | 0.00 | 19 | 1014.7 |
| 20260901141318 | 17 | 315 | 3.2 | 4.8 | 0.00 | 0.00 | 0.00 | 19 | 1014.6 |
| 20260901140317 | 18 | 315 | 3.2 | 4.8 | 0.00 | 0.00 | 0.00 | 19 | 1014.6 |
| 20260901135317 | 18 | 248 | 4.8 | 11.3 | 0.00 | 0.00 | 0.00 | 20 | 1014.8 |
| 20260901134317 | 18 | 248 | 6.4 | 12.9 | 0.00 | 0.00 | 0.00 | 21 | 1014.7 |
| 20260901133317 | 18 | 248 | 8.0 | 11.3 | 0.00 | 0.00 | 0.00 | 20 | 1014.6 |
| 20260901132318 | 18 | 248 | 8.0 | 11.3 | 0.00 | 0.00 | 0.00 | 21 | 1014.7 |
| 20260901131317 | 17 | 248 | 8.0 | 11.3 | 0.00 | 0.00 | 0.00 | 23 | 1014.7 |
| 20260901130315 | 18 | 225 | 8.0 | 11.3 | 0.00 | 0.00 | 0.00 | 22 | 1014.9 |
| 20260901125337 | 18 | 248 | 8.0 | 9.7 | 0.00 | 0.00 | 0.00 | 22 | 1014.9 |
| 20260901124317 | 18 | 248 | 6.4 | 12.9 | 0.00 | 0.00 | 0.00 | 21 | 1014.9 |
| 20260901123317 | 17 | 248 | 6.4 | 11.3 | 0.00 | 0.00 | 0.00 | 22 | 1014.9 |
| 20260901122317 | 17 | 248 | 6.4 | 9.7 | 0.00 | 0.00 | 0.00 | 22 | 1014.8 |
| 20260901121317 | 18 | 248 | 4.8 | 6.4 | 0.00 | 0.00 | 0.00 | 21 | 1014.9 |
| 20260901120317 | 18 | 225 | 6.4 | 14.5 | 0.00 | 0.00 | 0.00 | 21 | 1014.7 |
| 20260901115337 | 18 | 248 | 6.4 | 11.3 | 0.00 | 0.00 | 0.00 | 19 | 1014.7 |
| 20260901114317 | 18 | 225 | 6.4 | 11.3 | 0.00 | 0.00 | 0.00 | 16 | 1014.6 |
| 20260901113317 | 18 | 248 | 6.4 | 11.3 | 0.00 | 0.00 | 0.00 | 15 | 1014.5 |
| 20260901112317 | 18 | 248 | 6.4 | 11.3 | 0.00 | 0.00 | 0.00 | 15 | 1014.6 |
| 20260901111317 | 18 | 225 | 6.4 | 14.5 | 0.00 | 0.00 | 0.00 | 16 | 1014.4 |
| 20260901110337 | 18 | 225 | 6.4 | 14.5 | 0.00 | 0.00 | 0.00 | 16 | 1014.5 |
| 20260901105317 | 18 | 248 | 6.4 | 11.3 | 0.00 | 0.00 | 0.00 | 16 | 1014.6 |
| 20260901104317 | 17 | 248 | 6.4 | 16.1 | 0.00 | 0.00 | 0.00 | 17 | 1014.6 |
| 20260901103337 | 17 | 225 | 6.4 | 9.7 | 0.00 | 0.00 | 0.00 | 18 | 1014.5 |
| 20260901102317 | 17 | 225 | 6.4 | 9.7 | 0.00 | 0.00 | 0.00 | 18 | 1014.5 |
| 20260901101317 | 17 | 225 | 6.4 | 11.3 | 0.00 | 0.00 | 0.00 | 19 | 1014.6 |
| 20260901100337 | 18 | 225 | 4.8 | 8.0 | 0.00 | 0.00 | 0.00 | 20 | 1014.5 |
| 20260901095338 | 17 | 248 | 6.4 | 9.7 | 0.00 | 0.00 | 0.00 | 21 | 1014.7 |
| 20260901094337 | 18 | 225 | 6.4 | 9.7 | 0.00 | 0.00 | 0.00 | 22 | 1014.7 |
| 20260901093337 | 18 | 225 | 6.4 | 11.3 | 0.00 | 0.00 | 0.00 | 21 | 1014.7 |